createdAt,value
2019-05-18T00:00:15.041Z,14.50
2019-05-18T00:02:46.700Z,14.51
2019-05-18T00:05:18.333Z,14.51
2019-05-18T00:07:49.895Z,14.49
2019-05-18T00:10:21.590Z,14.49
2019-05-18T00:12:53.218Z,14.46
2019-05-18T00:15:24.799Z,14.44
2019-05-18T00:17:56.348Z,14.47
2019-05-18T00:20:27.959Z,14.45
2019-05-18T00:22:59.486Z,14.46
2019-05-18T00:25:31.077Z,14.44
2019-05-18T00:28:02.646Z,14.44
2019-05-18T00:30:35.323Z,14.49
2019-05-18T00:33:07.858Z,14.48
2019-05-18T00:35:39.453Z,14.46
2019-05-18T00:38:11.028Z,14.47
2019-05-18T00:40:42.609Z,14.47
2019-05-18T00:43:14.203Z,14.44
2019-05-18T00:45:45.800Z,14.45
2019-05-18T00:48:18.423Z,14.46
2019-05-18T00:50:50.015Z,14.48
2019-05-18T00:53:21.576Z,14.49
2019-05-18T00:55:53.180Z,14.49
2019-05-18T00:58:24.742Z,14.44
2019-05-18T01:00:56.332Z,14.40
2019-05-18T01:03:27.913Z,14.36
2019-05-18T01:05:59.510Z,14.33
2019-05-18T01:08:31.083Z,14.35
2019-05-18T01:11:02.651Z,14.37
2019-05-18T01:13:34.226Z,14.37
2019-05-18T01:16:05.793Z,14.38
2019-05-18T01:18:37.355Z,14.35
2019-05-18T01:21:08.939Z,14.34
2019-05-18T01:23:40.526Z,14.34
2019-05-18T01:26:12.165Z,14.33
2019-05-18T01:28:43.762Z,14.33
2019-05-18T01:31:15.312Z,14.32
2019-05-18T01:33:46.929Z,14.34
2019-05-18T01:36:18.496Z,14.30
2019-05-18T01:38:50.107Z,14.26
2019-05-18T01:41:21.671Z,14.25
2019-05-18T01:43:53.241Z,14.28
2019-05-18T01:46:24.824Z,14.25
2019-05-18T01:48:56.426Z,14.25
2019-05-18T01:51:28.006Z,14.24
2019-05-18T01:53:59.585Z,14.22
2019-05-18T01:56:31.164Z,14.24
2019-05-18T01:59:02.865Z,14.25
2019-05-18T02:01:34.445Z,14.26
2019-05-18T02:04:06.037Z,14.22
2019-05-18T02:06:37.643Z,14.20
2019-05-18T02:09:10.147Z,14.17
2019-05-18T02:11:43.367Z,14.17
2019-05-18T02:14:14.945Z,14.17
2019-05-18T02:16:46.522Z,14.15
2019-05-18T02:19:18.091Z,14.11
2019-05-18T02:21:49.671Z,14.09
2019-05-18T02:24:21.241Z,14.08
2019-05-18T02:26:52.839Z,14.09
2019-05-18T02:29:24.410Z,14.12
2019-05-18T02:31:56.000Z,14.11
2019-05-18T02:34:27.549Z,14.10
2019-05-18T02:36:59.179Z,14.10
2019-05-18T02:39:30.696Z,14.09
2019-05-18T02:42:02.277Z,14.09
2019-05-18T02:44:33.823Z,14.07
2019-05-18T02:47:05.408Z,14.08
2019-05-18T02:49:36.975Z,14.09
2019-05-18T02:52:08.552Z,14.08
2019-05-18T02:54:40.121Z,14.08
2019-05-18T02:57:11.703Z,14.09
2019-05-18T02:59:43.252Z,14.08
2019-05-18T03:02:14.858Z,14.06
2019-05-18T03:04:46.425Z,14.03
2019-05-18T03:07:18.008Z,14.02
2019-05-18T03:09:49.553Z,13.95
2019-05-18T03:12:22.218Z,13.95
2019-05-18T03:14:53.783Z,13.95
2019-05-18T03:17:26.367Z,13.94
2019-05-18T03:19:57.919Z,13.95
2019-05-18T03:22:29.650Z,13.90
2019-05-18T03:25:01.209Z,13.91
2019-05-18T03:27:32.785Z,13.92
2019-05-18T03:30:04.413Z,13.93
2019-05-18T03:32:35.990Z,13.92
2019-05-18T03:35:07.743Z,13.93
2019-05-18T03:37:39.322Z,13.88
2019-05-18T03:40:11.007Z,13.83
2019-05-18T03:42:42.573Z,13.82
2019-05-18T03:45:14.476Z,13.82
2019-05-18T03:47:46.036Z,13.82
2019-05-18T03:50:17.725Z,13.83
2019-05-18T03:52:49.294Z,13.84
2019-05-18T03:55:20.869Z,13.82
2019-05-18T03:57:52.449Z,13.87
2019-05-18T04:00:24.005Z,13.89
2019-05-18T04:02:55.594Z,13.91
2019-05-18T04:05:27.196Z,13.85
2019-05-18T04:07:58.753Z,13.83
2019-05-18T04:10:30.342Z,13.90
2019-05-18T04:13:01.946Z,13.90
2019-05-18T04:15:33.539Z,13.91
2019-05-18T04:18:05.149Z,13.96
2019-05-18T04:20:36.693Z,14.01
2019-05-18T04:23:08.297Z,14.03
2019-05-18T04:25:43.547Z,14.05
2019-05-18T04:28:13.272Z,14.01
2019-05-18T04:30:44.842Z,14.02
2019-05-18T04:33:16.432Z,14.06
2019-05-18T04:35:48.014Z,14.12
2019-05-18T04:38:19.588Z,14.18
2019-05-18T04:40:52.216Z,14.26
2019-05-18T04:43:23.811Z,14.31
2019-05-18T04:45:55.360Z,14.42
2019-05-18T04:48:26.935Z,14.51
2019-05-18T04:50:58.504Z,14.58
2019-05-18T04:53:31.170Z,14.63
2019-05-18T04:56:02.735Z,14.66
2019-05-18T04:58:34.317Z,14.71
2019-05-18T05:01:05.892Z,14.75
2019-05-18T05:03:37.551Z,14.81
2019-05-18T05:06:09.097Z,14.86
2019-05-18T05:08:40.679Z,14.94
2019-05-18T05:11:12.243Z,15.02
2019-05-18T05:13:43.830Z,15.15
2019-05-18T05:16:15.409Z,15.26
2019-05-18T05:18:47.106Z,15.38
2019-05-18T05:21:18.676Z,15.55
2019-05-18T05:23:50.302Z,15.70
2019-05-18T05:26:21.861Z,15.87
2019-05-18T05:28:53.609Z,16.06
2019-05-18T05:31:25.169Z,16.21
2019-05-18T05:33:56.774Z,16.37
2019-05-18T05:36:28.353Z,16.55
2019-05-18T05:38:59.944Z,16.66
2019-05-18T05:41:31.524Z,16.65
2019-05-18T05:44:04.191Z,16.67
2019-05-18T05:46:37.441Z,16.71
2019-05-18T05:49:09.141Z,16.66
2019-05-18T05:51:40.730Z,16.62
2019-05-18T05:54:13.382Z,16.64
2019-05-18T05:56:44.987Z,16.63
2019-05-18T05:59:16.548Z,16.62
2019-05-18T06:01:48.120Z,16.58
2019-05-18T06:04:19.707Z,16.58
2019-05-18T06:06:51.344Z,16.55
2019-05-18T06:09:22.923Z,16.50
2019-05-18T06:11:54.534Z,16.48
2019-05-18T06:14:26.143Z,16.45
2019-05-18T06:16:57.730Z,16.44
2019-05-18T06:19:29.350Z,16.42
2019-05-18T06:22:00.899Z,16.44
2019-05-18T06:24:32.737Z,16.44
2019-05-18T06:27:04.301Z,16.44
2019-05-18T06:29:35.899Z,16.45
2019-05-18T06:32:07.495Z,16.45
2019-05-18T06:34:39.075Z,16.46
2019-05-18T06:37:10.680Z,16.47
2019-05-18T06:39:42.261Z,16.50
2019-05-18T06:42:13.864Z,16.50
2019-05-18T06:44:45.444Z,16.51
2019-05-18T06:47:17.063Z,16.57
2019-05-18T06:49:48.655Z,16.63
2019-05-18T06:52:20.251Z,16.75
2019-05-18T06:54:52.137Z,16.85
2019-05-18T06:57:25.095Z,16.97
2019-05-18T06:59:56.660Z,17.07
2019-05-18T07:02:28.244Z,17.31
2019-05-18T07:04:59.816Z,17.59
2019-05-18T07:07:31.398Z,17.81
2019-05-18T07:10:02.969Z,18.02
2019-05-18T07:12:34.577Z,18.25
2019-05-18T07:15:07.161Z,18.34
2019-05-18T07:17:38.882Z,18.44
2019-05-18T07:20:11.855Z,18.62
2019-05-18T07:22:43.506Z,18.73
2019-05-18T07:25:15.407Z,19.07
2019-05-18T07:27:46.973Z,19.57
2019-05-18T07:30:18.864Z,20.10
2019-05-18T07:32:50.514Z,20.54
2019-05-18T07:35:22.238Z,20.78
2019-05-18T07:37:53.834Z,20.77
2019-05-18T07:40:25.422Z,20.98
2019-05-18T07:42:57.038Z,21.25
2019-05-18T07:45:29.832Z,21.41
2019-05-18T07:48:01.409Z,21.59
2019-05-18T07:50:33.010Z,21.79
2019-05-18T07:53:04.605Z,21.82
2019-05-18T07:55:36.192Z,21.81
2019-05-18T07:58:09.397Z,21.88
2019-05-18T08:00:41.191Z,21.91
2019-05-18T08:03:12.768Z,22.04
2019-05-18T08:05:44.377Z,22.04
2019-05-18T08:08:16.070Z,22.12
2019-05-18T08:10:47.693Z,22.14
2019-05-18T08:13:19.308Z,22.27
2019-05-18T08:15:58.275Z,22.38
2019-05-18T08:18:29.996Z,22.45
2019-05-18T08:21:01.607Z,22.42
2019-05-18T08:23:33.577Z,22.39
2019-05-18T08:26:05.190Z,22.48
2019-05-18T08:28:36.796Z,22.37
2019-05-18T08:31:08.400Z,22.56
2019-05-18T08:33:39.995Z,22.76
2019-05-18T08:36:11.589Z,22.88
2019-05-18T08:38:43.175Z,22.95
2019-05-18T08:41:14.779Z,22.93
2019-05-18T08:43:46.365Z,23.01
2019-05-18T08:46:18.000Z,23.08
2019-05-18T08:48:49.617Z,23.06
2019-05-18T08:51:21.221Z,23.16
2019-05-18T08:53:52.832Z,23.13
2019-05-18T08:56:24.400Z,23.10
2019-05-18T08:58:56.055Z,23.17
2019-05-18T09:01:27.767Z,23.19
2019-05-18T09:03:59.416Z,23.21
2019-05-18T09:06:31.063Z,23.29
2019-05-18T09:09:02.848Z,23.30
2019-05-18T09:11:34.503Z,23.29
2019-05-18T09:14:06.712Z,23.29
2019-05-18T09:16:39.354Z,23.31
2019-05-18T09:19:10.977Z,23.39
2019-05-18T09:21:42.581Z,23.36
2019-05-18T09:24:14.197Z,23.37
2019-05-18T09:26:45.818Z,23.43
2019-05-18T09:29:17.439Z,23.38
2019-05-18T09:31:49.068Z,23.32
2019-05-18T09:34:20.691Z,23.34
2019-05-18T09:36:52.275Z,23.40
2019-05-18T09:39:23.887Z,23.55
2019-05-18T09:41:55.519Z,23.55
2019-05-18T09:44:27.130Z,23.43
2019-05-18T09:46:58.794Z,23.25
2019-05-18T09:49:30.409Z,23.31
2019-05-18T09:52:02.135Z,23.50
2019-05-18T09:54:34.343Z,23.49
2019-05-18T09:57:06.098Z,23.66
2019-05-18T09:59:37.727Z,23.76
2019-05-18T10:02:09.614Z,23.94
2019-05-18T10:04:41.234Z,24.13
2019-05-18T10:07:12.840Z,24.27
2019-05-18T10:09:44.439Z,24.26
2019-05-18T10:12:16.060Z,24.40
2019-05-18T10:14:47.660Z,24.53
2019-05-18T10:17:19.272Z,24.52
2019-05-18T10:19:50.859Z,24.60
2019-05-18T10:22:22.436Z,24.74
2019-05-18T10:24:54.032Z,25.02
2019-05-18T10:27:25.621Z,25.11
2019-05-18T10:29:57.229Z,25.03
2019-05-18T10:32:29.410Z,24.88
2019-05-18T10:35:01.090Z,25.01
2019-05-18T10:37:33.747Z,24.91
2019-05-18T10:40:06.075Z,24.99
2019-05-18T10:42:37.701Z,25.12
2019-05-18T10:45:10.509Z,25.24
2019-05-18T10:47:42.118Z,25.43
2019-05-18T10:50:13.809Z,25.53
2019-05-18T10:52:46.130Z,25.53
2019-05-18T10:55:17.851Z,25.35
2019-05-18T10:57:49.526Z,25.42
2019-05-18T11:00:21.428Z,25.31
2019-05-18T11:02:53.046Z,25.13
2019-05-18T11:05:26.100Z,25.13
2019-05-18T11:07:57.769Z,25.18
2019-05-18T11:10:29.465Z,25.30
2019-05-18T11:13:01.096Z,25.50
2019-05-18T11:15:32.697Z,25.70
2019-05-18T11:18:04.292Z,25.76
2019-05-18T11:20:35.896Z,25.80
2019-05-18T11:23:07.531Z,25.64
2019-05-18T11:25:39.109Z,25.64
2019-05-18T11:28:10.773Z,25.47
2019-05-18T11:30:42.333Z,25.13
2019-05-18T11:33:13.951Z,24.93
2019-05-18T11:35:45.958Z,24.70
2019-05-18T11:38:18.177Z,24.44
2019-05-18T11:40:50.026Z,24.21
2019-05-18T11:43:21.680Z,23.94
2019-05-18T11:45:53.393Z,23.81
2019-05-18T11:48:25.087Z,23.79
2019-05-18T11:50:56.781Z,23.80
2019-05-18T11:53:28.358Z,23.48
2019-05-18T11:56:00.028Z,22.86
2019-05-18T11:58:31.613Z,22.54
2019-05-18T12:01:03.261Z,22.41
2019-05-18T12:03:34.837Z,22.42
2019-05-18T12:06:06.587Z,22.36
2019-05-18T12:08:38.167Z,22.39
2019-05-18T12:11:09.801Z,22.53
2019-05-18T12:13:41.429Z,22.58
2019-05-18T12:16:13.194Z,22.58
2019-05-18T12:18:44.810Z,22.64
2019-05-18T12:21:16.416Z,22.68
2019-05-18T12:23:48.053Z,22.77
2019-05-18T12:26:22.862Z,22.78
2019-05-18T12:28:54.932Z,22.77
2019-05-18T12:31:26.631Z,22.63
2019-05-18T12:33:58.271Z,22.67
2019-05-18T12:36:29.964Z,22.70
2019-05-18T12:39:01.656Z,22.67
2019-05-18T12:41:33.625Z,22.63
2019-05-18T12:44:05.226Z,22.60
2019-05-18T12:46:36.867Z,22.70
2019-05-18T12:49:08.411Z,22.63
2019-05-18T12:51:40.043Z,22.55
2019-05-18T12:54:11.630Z,22.52
2019-05-18T12:56:43.348Z,22.46
2019-05-18T12:59:14.949Z,22.53
2019-05-18T13:01:46.531Z,22.72
2019-05-18T13:04:18.216Z,22.79
2019-05-18T13:06:49.812Z,22.56
2019-05-18T13:09:23.719Z,22.52
2019-05-18T13:11:54.777Z,22.65
2019-05-18T13:14:26.432Z,22.80
2019-05-18T13:16:59.098Z,22.96
2019-05-18T13:19:30.726Z,23.03
2019-05-18T13:22:02.644Z,22.92
2019-05-18T13:24:44.986Z,22.97
2019-05-18T13:27:07.745Z,23.14
2019-05-18T13:29:39.381Z,23.27
2019-05-18T13:32:11.003Z,23.42
2019-05-18T13:34:42.640Z,23.52
2019-05-18T13:37:14.241Z,23.55
2019-05-18T13:39:45.874Z,23.55
2019-05-18T13:42:17.465Z,23.47
2019-05-18T13:44:49.127Z,23.43
2019-05-18T13:47:20.733Z,23.25
2019-05-18T13:49:52.339Z,23.25
2019-05-18T13:52:23.941Z,23.20
2019-05-18T13:55:03.492Z,23.07
2019-05-18T13:57:28.938Z,21.91
2019-05-18T14:00:00.616Z,21.28
2019-05-18T14:02:32.249Z,20.74
2019-05-18T14:05:03.845Z,20.32
2019-05-18T14:07:35.448Z,20.17
2019-05-18T14:10:07.975Z,19.90
2019-05-18T14:12:39.651Z,19.57
2019-05-18T14:15:13.077Z,19.31
2019-05-18T14:17:44.749Z,19.12
2019-05-18T14:20:16.859Z,18.89
2019-05-18T14:22:48.489Z,18.62
2019-05-18T14:25:20.487Z,18.54
2019-05-18T14:27:52.169Z,18.44
2019-05-18T14:30:24.038Z,18.44
2019-05-18T14:32:55.774Z,18.40
2019-05-18T14:35:27.404Z,18.41
2019-05-18T14:37:59.023Z,18.47
2019-05-18T14:40:30.689Z,18.48
2019-05-18T14:43:02.423Z,18.43
2019-05-18T14:45:33.976Z,18.30
2019-05-18T14:48:05.607Z,18.29
2019-05-18T14:50:37.189Z,18.29
2019-05-18T14:53:08.831Z,18.22
2019-05-18T14:55:40.579Z,18.35
2019-05-18T14:58:12.219Z,18.01
2019-05-18T15:00:43.866Z,18.13
2019-05-18T15:03:15.485Z,18.33
2019-05-18T15:05:47.215Z,18.60
2019-05-18T15:08:18.943Z,18.81
2019-05-18T15:10:50.562Z,19.03
2019-05-18T15:13:22.230Z,19.23
2019-05-18T15:15:53.864Z,19.42
2019-05-18T15:18:25.555Z,19.60
2019-05-18T15:20:58.278Z,19.73
2019-05-18T15:23:30.032Z,19.85
2019-05-18T15:26:01.748Z,19.97
2019-05-18T15:28:33.450Z,20.11
2019-05-18T15:31:05.186Z,20.14
2019-05-18T15:33:36.786Z,20.22
2019-05-18T15:36:08.450Z,20.24
2019-05-18T15:38:40.073Z,20.25
2019-05-18T15:41:11.697Z,20.25
2019-05-18T15:43:43.290Z,20.26
2019-05-18T15:46:15.146Z,20.23
2019-05-18T15:48:46.793Z,20.14
2019-05-18T15:51:18.353Z,20.11
2019-05-18T15:53:49.956Z,20.04
2019-05-18T15:56:21.549Z,20.07
2019-05-18T15:58:53.170Z,20.08
2019-05-18T16:01:24.763Z,20.05
2019-05-18T16:03:56.321Z,20.06
2019-05-18T16:06:27.913Z,19.86
2019-05-18T16:08:59.511Z,19.83
2019-05-18T16:11:31.130Z,19.88
2019-05-18T16:14:03.865Z,19.92
2019-05-18T16:16:35.469Z,19.97
2019-05-18T16:19:07.127Z,19.96
2019-05-18T16:21:39.019Z,19.98
2019-05-18T16:24:10.619Z,20.03
2019-05-18T16:26:42.258Z,20.05
2019-05-18T16:29:13.858Z,20.09
2019-05-18T16:31:45.486Z,20.08
2019-05-18T16:34:17.028Z,20.02
2019-05-18T16:36:49.696Z,19.90
2019-05-18T16:39:21.296Z,19.86
2019-05-18T16:41:52.903Z,19.85
2019-05-18T16:44:24.556Z,19.83
2019-05-18T16:46:56.160Z,19.81
2019-05-18T16:49:27.761Z,19.78
2019-05-18T16:51:59.328Z,19.78
2019-05-18T16:54:30.949Z,19.80
2019-05-18T16:57:02.568Z,19.75
2019-05-18T16:59:34.206Z,19.73
2019-05-18T17:02:06.773Z,19.68
2019-05-18T17:04:38.401Z,19.65
2019-05-18T17:07:10.077Z,19.64
2019-05-18T17:09:41.738Z,19.60
2019-05-18T17:12:13.338Z,19.57
2019-05-18T17:14:44.967Z,19.55
2019-05-18T17:17:16.551Z,19.53
2019-05-18T17:19:48.169Z,19.50
2019-05-18T17:22:19.809Z,19.47
2019-05-18T17:24:51.459Z,19.42
2019-05-18T17:27:23.001Z,19.39
2019-05-18T17:29:54.649Z,19.36
2019-05-18T17:32:26.228Z,19.31
2019-05-18T17:34:57.845Z,19.27
2019-05-18T17:37:29.483Z,19.24
2019-05-18T17:40:01.102Z,19.21
2019-05-18T17:42:32.792Z,19.16
2019-05-18T17:45:04.763Z,19.12
2019-05-18T17:47:36.478Z,19.08
2019-05-18T17:50:08.729Z,19.06
2019-05-18T17:52:40.323Z,19.03
2019-05-18T17:55:16.206Z,18.98
2019-05-18T17:57:46.544Z,18.88
2019-05-18T18:00:18.967Z,18.80
2019-05-18T18:02:50.605Z,18.75
2019-05-18T18:05:22.233Z,18.70
2019-05-18T18:07:55.645Z,18.66
2019-05-18T18:10:28.233Z,18.59
2019-05-18T18:12:59.869Z,18.53
2019-05-18T18:15:31.555Z,18.36
2019-05-18T18:18:03.270Z,18.25
2019-05-18T18:20:34.870Z,18.26
2019-05-18T18:23:06.545Z,18.23
2019-05-18T18:25:38.216Z,18.25
2019-05-18T18:28:09.809Z,18.20
2019-05-18T18:30:41.406Z,18.05
2019-05-18T18:33:13.043Z,18.04
2019-05-18T18:35:44.664Z,18.01
2019-05-18T18:38:16.354Z,18.05
2019-05-18T18:40:47.968Z,18.06
2019-05-18T18:43:20.512Z,17.88
2019-05-18T18:45:52.150Z,17.78
2019-05-18T18:48:26.387Z,17.75
2019-05-18T18:50:57.080Z,17.77
2019-05-18T18:53:28.709Z,17.68
2019-05-18T18:56:00.360Z,17.69
2019-05-18T18:58:31.996Z,17.70
2019-05-18T19:01:03.595Z,17.72
2019-05-18T19:03:35.205Z,17.75
2019-05-18T19:06:06.822Z,17.76
2019-05-18T19:08:38.459Z,17.75
2019-05-18T19:11:29.145Z,17.71
2019-05-18T19:14:00.737Z,17.69
2019-05-18T19:16:32.332Z,17.67
2019-05-18T19:19:03.978Z,17.59
2019-05-18T19:21:35.611Z,17.56
2019-05-18T19:24:07.277Z,17.54
2019-05-18T19:26:38.926Z,17.52
2019-05-18T19:29:10.513Z,17.49
2019-05-18T19:31:42.124Z,17.48
2019-05-18T19:34:13.818Z,17.46
2019-05-18T19:36:45.505Z,17.45
2019-05-18T19:39:18.798Z,17.40
2019-05-18T19:41:50.430Z,17.36
2019-05-18T19:44:23.970Z,17.29
2019-05-18T19:46:55.390Z,17.24
2019-05-18T19:49:26.965Z,17.25
2019-05-18T19:51:58.592Z,17.21
2019-05-18T19:54:30.201Z,17.21
2019-05-18T19:57:01.951Z,17.22
2019-05-18T19:59:33.603Z,17.22
2019-05-18T20:02:05.328Z,17.19
2019-05-18T20:04:36.980Z,17.19
2019-05-18T20:07:08.615Z,17.18
2019-05-18T20:09:40.215Z,17.17
2019-05-18T20:12:11.814Z,17.15
2019-05-18T20:14:43.401Z,17.13
2019-05-18T20:17:15.075Z,17.12
2019-05-18T20:19:46.667Z,17.09
2019-05-18T20:22:18.297Z,17.08
2019-05-18T20:24:49.945Z,17.05
2019-05-18T20:27:21.559Z,17.04
2019-05-18T20:29:53.166Z,17.02
2019-05-18T20:32:24.852Z,17.00
2019-05-18T20:34:56.475Z,16.99
2019-05-18T20:37:28.075Z,16.98
2019-05-18T20:39:59.761Z,16.96
2019-05-18T20:42:31.358Z,16.95
2019-05-18T20:45:02.952Z,16.95
2019-05-18T20:47:36.079Z,16.92
2019-05-18T20:50:08.384Z,16.87
2019-05-18T20:52:40.027Z,16.87
2019-05-18T20:55:11.739Z,16.87
2019-05-18T20:57:43.393Z,16.84
2019-05-18T21:00:15.915Z,16.81
2019-05-18T21:02:47.594Z,16.77
2019-05-18T21:05:19.205Z,16.72
2019-05-18T21:07:50.951Z,16.69
2019-05-18T21:10:22.565Z,16.70
2019-05-18T21:12:54.184Z,16.67
2019-05-18T21:15:26.292Z,16.61
2019-05-18T21:17:57.935Z,16.60
2019-05-18T21:20:30.605Z,16.57
2019-05-18T21:23:02.260Z,16.52
2019-05-18T21:25:34.433Z,16.49
2019-05-18T21:28:06.055Z,16.42
2019-05-18T21:30:37.638Z,16.37
2019-05-18T21:33:09.275Z,16.38
2019-05-18T21:35:40.869Z,16.33
2019-05-18T21:38:12.492Z,16.30
2019-05-18T21:40:44.220Z,16.27
2019-05-18T21:43:15.844Z,16.24
2019-05-18T21:45:47.429Z,16.26
2019-05-18T21:48:19.021Z,16.23
2019-05-18T21:50:50.599Z,16.21
2019-05-18T21:53:22.297Z,16.18
2019-05-18T21:55:53.897Z,16.14
2019-05-18T21:58:25.549Z,16.12
2019-05-18T22:00:57.225Z,16.10
2019-05-18T22:03:28.982Z,16.02
2019-05-18T22:06:00.557Z,15.92
2019-05-18T22:08:32.328Z,15.86
2019-05-18T22:11:03.930Z,15.77
2019-05-18T22:13:35.757Z,15.71
2019-05-18T22:16:07.355Z,15.66
2019-05-18T22:18:39.009Z,15.59
2019-05-18T22:21:10.998Z,15.55
2019-05-18T22:23:42.618Z,15.53
2019-05-18T22:26:14.253Z,15.50
2019-05-18T22:28:45.876Z,15.45
2019-05-18T22:31:19.589Z,15.38
2019-05-18T22:33:50.831Z,15.38
2019-05-18T22:36:22.474Z,15.40
2019-05-18T22:38:54.081Z,15.38
2019-05-18T22:41:25.686Z,15.35
2019-05-18T22:43:57.287Z,15.30
2019-05-18T22:46:28.902Z,15.24
2019-05-18T22:49:00.519Z,15.19
2019-05-18T22:51:32.158Z,15.18
2019-05-18T22:54:03.790Z,15.16
2019-05-18T22:56:35.409Z,15.13
2019-05-18T22:59:07.005Z,15.14
2019-05-18T23:01:38.637Z,15.18
2019-05-18T23:04:11.547Z,15.20
2019-05-18T23:06:43.140Z,15.13
2019-05-18T23:09:14.835Z,15.05
2019-05-18T23:11:46.536Z,14.98
2019-05-18T23:14:18.127Z,14.93
2019-05-18T23:16:49.718Z,14.89
2019-05-18T23:19:21.319Z,14.88
2019-05-18T23:21:52.912Z,14.85
2019-05-18T23:24:24.488Z,14.83
2019-05-18T23:26:56.101Z,14.85
2019-05-18T23:29:28.731Z,14.80
2019-05-18T23:32:00.360Z,14.67
2019-05-18T23:34:31.979Z,14.59
2019-05-18T23:37:03.555Z,14.58
2019-05-18T23:39:35.228Z,14.57
2019-05-18T23:42:06.835Z,14.58
2019-05-18T23:44:38.458Z,14.59
2019-05-18T23:47:10.033Z,14.56
2019-05-18T23:49:41.665Z,14.57
2019-05-18T23:52:13.221Z,14.56
2019-05-18T23:54:44.826Z,14.55
2019-05-18T23:57:16.504Z,14.51
2019-05-18T23:59:48.123Z,14.47
